Rjazan, Russia
Current Conditions -  °F | °C
As of 8:30 AM on Thursday 18 Dec 2014 (Local Time) from UUDD Reporting Station
Broken Clouds Broken Clouds  
Wind Chill: 28°   Ceiling: 4600
Heat Index: 34°   Visibility: 6mi
Dew Point: 32°   Wind: 7mph
Humidity: 93%   Direction: 240°WSW
Pressure: 29.68"   Gusts: NA
Location:  54.62°N, 39.74°E
Report Text: UUDD 180530Z 24003MPS 210V280 9999 BKN046 01/M00 Q1005 3255019482550194 NOSIG
Loading
Personal Weather Stations






























Interactive Weather Map New forecast layout! Learn more

10-Day Weather Forecast

Advertisements
Track Severe Weather on mobile